Time;durP1;ratioP1;P1;durP2;ratioP2;P2;SDS_P1;SDS_P2;PMS_P1;PMS_P2;Temp;Humidity;BMP_temperature;BMP_pressure;BME280_temperature;BME280_humidity;BME280_pressure;Samples;Min_cycle;Max_cycle;Signal;HPM_P1;HPM_P2
2022/08/30 00:02:46;;;;;;;14.58;9.65;;;;;;;23.21;65.81;100201.09;1740675;81;20987;-69
2022/08/30 00:05:16;;;;;;;14.30;9.65;;;;;;;23.20;65.86;100199.41;1782455;80;20995;-67
2022/08/30 00:07:46;;;;;;;17.87;10.20;;;;;;;23.19;65.93;100196.91;1781695;80;20970;-68
2022/08/30 00:10:16;;;;;;;14.35;9.88;;;;;;;23.19;65.99;100202.49;1776571;80;21006;-66
2022/08/30 00:12:47;;;;;;;19.67;10.23;;;;;;;23.16;66.09;100197.48;1777604;80;20990;-67
2022/08/30 00:15:18;;;;;;;15.03;9.73;;;;;;;23.11;66.22;100198.33;1771338;80;21474;-66
2022/08/30 00:17:47;;;;;;;16.12;9.68;;;;;;;23.09;66.49;100201.41;1731781;81;21578;-66
2022/08/30 00:20:20;;;;;;;15.90;10.40;;;;;;;23.04;66.66;100204.79;1757210;80;21451;-66
2022/08/30 00:22:50;;;;;;;15.08;10.63;;;;;;;23.02;66.78;100205.08;1781908;80;21023;-66
2022/08/30 00:25:20;;;;;;;16.62;10.35;;;;;;;23.02;66.83;100197.25;1769940;80;21093;-67
2022/08/30 00:27:50;;;;;;;12.68;9.75;;;;;;;23.02;66.83;100202.28;1781598;80;21041;-66
2022/08/30 00:30:19;;;;;;;19.12;10.93;;;;;;;23.03;66.84;100205.35;1771054;80;21054;-68
2022/08/30 00:32:49;;;;;;;15.10;9.45;;;;;;;23.03;66.87;100197.53;1795022;80;21442;-67
2022/08/30 00:35:20;;;;;;;13.48;9.20;;;;;;;23.03;66.88;100205.35;1753975;80;21110;-68
2022/08/30 00:37:50;;;;;;;12.78;9.85;;;;;;;23.01;66.91;100196.41;1736832;81;21070;-67
2022/08/30 00:40:19;;;;;;;14.90;9.43;;;;;;;23.03;66.87;100201.72;1779219;80;21438;-67
2022/08/30 00:42:52;;;;;;;17.25;10.32;;;;;;;23.02;66.84;100201.45;1730947;81;21038;-67
2022/08/30 00:45:28;;;;;;;13.90;10.18;;;;;;;23.02;66.87;100196.69;1740783;81;21058;-67
2022/08/30 00:47:59;;;;;;;14.78;9.78;;;;;;;22.99;66.99;100201.45;1765446;81;21039;-67
2022/08/30 00:50:37;;;;;;;14.58;9.83;;;;;;;22.95;67.06;100203.14;1733354;81;21011;-68
2022/08/30 00:53:12;;;;;;;14.58;9.50;;;;;;;22.93;67.16;100204.55;1787190;80;21047;-69
2022/08/30 00:55:44;;;;;;;13.83;9.70;;;;;;;22.88;67.32;100211.55;1777861;80;21010;-68
2022/08/30 00:58:20;;;;;;;19.32;10.53;;;;;;;22.83;67.55;100221.34;1768798;80;20965;-67
2022/08/30 01:00:52;;;;;;;12.63;9.63;;;;;;;22.79;67.74;100212.66;1781611;80;21430;-67
2022/08/30 01:03:22;;;;;;;14.38;10.18;;;;;;;22.78;67.80;100216.57;1731447;81;21496;-67
2022/08/30 01:05:53;;;;;;;15.25;9.88;;;;;;;22.78;67.83;100214.62;1758302;81;21038;-66
2022/08/30 01:08:23;;;;;;;14.25;9.28;;;;;;;22.75;67.95;100215.15;1740430;81;21026;-66
2022/08/30 01:10:56;;;;;;;15.88;9.70;;;;;;;22.71;68.07;100215.44;1757632;80;21032;-68
2022/08/30 01:13:26;;;;;;;12.95;9.18;;;;;;;22.68;68.20;100218.80;1780459;80;20994;-67
2022/08/30 01:15:58;;;;;;;15.03;9.95;;;;;;;22.66;68.36;100218.23;1774717;80;21043;-68
2022/08/30 01:18:32;;;;;;;13.70;9.25;;;;;;;22.64;68.51;100222.44;1781951;80;21010;-68
2022/08/30 01:21:36;;;;;;;14.70;9.10;;;;;;;22.62;68.63;100219.09;1740185;81;21413;-67
2022/08/30 01:24:06;;;;;;;11.75;8.75;;;;;;;22.58;68.78;100216.58;1768965;81;20954;-68
2022/08/30 01:26:37;;;;;;;14.30;8.70;;;;;;;22.49;69.02;100219.67;1739402;81;20989;-67
2022/08/30 01:29:12;;;;;;;12.18;9.18;;;;;;;22.46;69.22;100221.06;1730595;83;21060;-67
2022/08/30 01:31:43;;;;;;;11.00;8.60;;;;;;;22.44;69.35;100214.92;1765224;81;21518;-67
2022/08/30 01:34:13;;;;;;;12.50;9.35;;;;;;;22.39;69.52;100214.38;1767003;81;21091;-68
2022/08/30 01:36:43;;;;;;;15.65;9.53;;;;;;;22.39;69.64;100212.14;1730738;83;21125;-67
2022/08/30 01:39:16;;;;;;;12.80;9.00;;;;;;;22.39;69.66;100209.34;1743839;82;21054;-67
2022/08/30 01:41:47;;;;;;;11.28;8.70;;;;;;;22.37;69.73;100208.23;1719371;83;21079;-68
2022/08/30 01:44:17;;;;;;;11.68;9.05;;;;;;;22.38;69.78;100207.67;1763215;81;21053;-67
2022/08/30 01:46:47;;;;;;;12.00;9.10;;;;;;;22.37;69.86;100199.85;1733638;83;21022;-68
2022/08/30 01:49:19;;;;;;;12.30;8.63;;;;;;;22.36;69.92;100207.11;1704412;84;21066;-68
2022/08/30 01:51:50;;;;;;;13.30;9.60;;;;;;;22.32;70.02;100211.58;1729477;81;21060;-67
2022/08/30 01:54:22;;;;;;;14.68;9.23;;;;;;;22.27;70.20;100204.05;1763606;80;21056;-67
2022/08/30 01:56:55;;;;;;;16.17;9.45;;;;;;;22.23;70.37;100211.87;1730594;82;21094;-68
2022/08/30 01:59:27;;;;;;;17.10;9.60;;;;;;;22.21;70.53;100215.50;1761743;81;21044;-68
2022/08/30 02:01:57;;;;;;;12.05;9.55;;;;;;;22.20;70.63;100219.41;1730383;81;21095;-68
2022/08/30 02:04:27;;;;;;;12.98;9.05;;;;;;;22.16;70.71;100217.73;1748301;82;21014;-68
2022/08/30 02:06:58;;;;;;;15.15;10.53;;;;;;;22.14;70.83;100218.56;1732718;83;21070;-68
2022/08/30 02:09:28;;;;;;;15.05;10.23;;;;;;;22.08;71.01;100222.44;1748977;82;21058;-67
2022/08/30 02:11:57;;;;;;;12.78;9.28;;;;;;;22.04;71.23;100226.34;1731437;81;21034;-68
2022/08/30 02:14:28;;;;;;;15.15;9.45;;;;;;;22.04;71.36;100215.18;1717481;82;21065;-67
2022/08/30 02:16:58;;;;;;;14.35;10.20;;;;;;;22.03;71.49;100223.83;1726975;83;21016;-67
2022/08/30 02:19:30;;;;;;;15.45;10.23;;;;;;;21.99;71.66;100226.30;1754393;81;21451;-68
2022/08/30 02:21:59;;;;;;;15.43;9.70;;;;;;;21.94;71.88;100222.67;1770979;80;21005;-69
2022/08/30 02:24:30;;;;;;;16.27;9.43;;;;;;;21.92;72.04;100231.31;1776619;80;21042;-68
2022/08/30 02:27:00;;;;;;;12.00;9.13;;;;;;;21.90;72.19;100228.52;1787548;80;21011;-68
2022/08/30 02:29:30;;;;;;;13.48;9.30;;;;;;;21.87;72.31;100236.89;1755061;81;21097;-68
2022/08/30 02:32:00;;;;;;;15.23;9.53;;;;;;;21.83;72.50;100235.20;1768306;80;21424;-68
2022/08/30 02:34:29;;;;;;;12.37;9.00;;;;;;;21.80;72.81;100246.92;1774131;80;21079;-67
2022/08/30 02:36:59;;;;;;;13.03;9.58;;;;;;;21.74;72.97;100242.45;1763917;80;20994;-68
2022/08/30 02:39:30;;;;;;;15.72;9.90;;;;;;;21.75;73.08;100246.07;1733157;81;21082;-68
2022/08/30 02:42:00;;;;;;;12.28;9.05;;;;;;;21.71;73.23;100247.73;1783633;80;20969;-67
2022/08/30 02:44:32;;;;;;;15.38;10.08;;;;;;;21.67;73.48;100243.27;1731107;81;21027;-67
2022/08/30 02:47:02;;;;;;;14.95;10.10;;;;;;;21.65;73.69;100246.88;1782317;80;21023;-67
2022/08/30 02:49:32;;;;;;;13.28;9.45;;;;;;;21.63;73.85;100258.87;1783973;80;21078;-67
2022/08/30 02:52:04;;;;;;;17.65;9.35;;;;;;;21.59;74.02;100260.53;1750040;81;21058;-68
2022/08/30 02:54:34;;;;;;;17.00;10.32;;;;;;;21.58;74.18;100262.20;1765066;80;21003;-67
2022/08/30 02:57:05;;;;;;;15.30;10.13;;;;;;;21.55;74.30;100262.19;1772042;80;21006;-67
2022/08/30 02:59:40;;;;;;;14.25;10.50;;;;;;;21.55;74.38;100264.98;1761538;80;20983;-67
2022/08/30 03:02:07;;;;;;;14.95;9.93;;;;;;;21.53;74.53;100261.63;1772005;80;21055;-67
2022/08/30 03:04:38;;;;;;;15.98;10.45;;;;;;;21.50;74.68;100260.22;1753822;81;21485;-67
2022/08/30 03:07:09;;;;;;;16.48;10.88;;;;;;;21.47;74.75;100262.16;1733411;82;21030;-69
2022/08/30 03:09:39;;;;;;;15.78;10.32;;;;;;;21.44;74.84;100266.02;1753391;80;21055;-67
2022/08/30 03:12:11;;;;;;;15.53;10.25;;;;;;;21.39;75.07;100268.78;1772273;80;21036;-69
2022/08/30 03:14:41;;;;;;;16.30;10.85;;;;;;;21.34;75.25;100272.39;1757303;80;21496;-68
2022/08/30 03:17:11;;;;;;;13.62;10.45;;;;;;;21.32;75.50;100277.95;1769481;80;20995;-69
2022/08/30 03:19:43;;;;;;;13.98;10.60;;;;;;;21.32;75.64;100278.80;1773820;80;21443;-68
2022/08/30 03:22:14;;;;;;;16.75;10.25;;;;;;;21.29;75.76;100273.77;1761356;81;21400;-67
2022/08/30 03:24:44;;;;;;;16.23;10.65;;;;;;;21.24;75.83;100271.50;1756949;81;21603;-67
2022/08/30 03:27:15;;;;;;;14.68;10.63;;;;;;;21.19;76.02;100275.91;1764143;81;20988;-68
2022/08/30 03:29:45;;;;;;;17.15;11.15;;;;;;;21.16;76.23;100284.81;1751256;81;21010;-67
2022/08/30 03:32:15;;;;;;;15.40;11.68;;;;;;;21.14;76.37;100283.41;1758378;81;21027;-68
2022/08/30 03:34:45;;;;;;;17.80;12.18;;;;;;;21.12;76.49;100281.45;1761356;81;21016;-67
2022/08/30 03:37:15;;;;;;;16.37;10.88;;;;;;;21.10;76.52;100284.50;1768950;81;21474;-69
2022/08/30 03:39:46;;;;;;;18.75;12.00;;;;;;;21.08;76.57;100283.09;1766472;80;21052;-69
2022/08/30 03:42:19;;;;;;;16.77;11.38;;;;;;;21.09;76.67;100286.16;1736310;81;21496;-69
2022/08/30 03:44:51;;;;;;;17.80;11.57;;;;;;;21.09;76.69;100296.76;1729042;81;21075;-68
2022/08/30 03:47:22;;;;;;;16.97;12.05;;;;;;;21.07;76.73;100297.58;1751311;81;21028;-67
2022/08/30 03:49:51;;;;;;;18.32;12.47;;;;;;;21.05;76.82;100298.41;1739240;81;21121;-69
2022/08/30 03:52:22;;;;;;;17.80;12.55;;;;;;;21.04;76.81;100297.28;1755529;81;21065;-69
2022/08/30 03:54:52;;;;;;;15.68;11.53;;;;;;;21.05;76.83;100303.13;1741860;81;21023;-70
2022/08/30 03:57:22;;;;;;;16.80;11.57;;;;;;;21.06;76.82;100313.17;1729981;81;21019;-68
2022/08/30 03:59:54;;;;;;;16.40;12.23;;;;;;;21.01;76.91;100313.98;1741641;81;21525;-68
2022/08/30 04:02:26;;;;;;;15.15;12.35;;;;;;;20.98;77.09;100323.43;1730937;81;21050;-68
2022/08/30 04:04:55;;;;;;;15.68;12.13;;;;;;;20.97;77.19;100328.72;1724541;81;21006;-68
2022/08/30 04:07:26;;;;;;;17.65;11.80;;;;;;;20.94;77.19;100327.86;1750693;82;21034;-70
2022/08/30 04:09:56;;;;;;;19.77;12.45;;;;;;;20.82;77.40;100330.28;1732428;81;21078;-69
2022/08/30 04:12:27;;;;;;;17.57;12.75;;;;;;;20.73;77.85;100337.42;1757541;81;21327;-68
2022/08/30 04:14:58;;;;;;;18.07;12.88;;;;;;;20.68;78.38;100337.94;1743456;81;21058;-68
2022/08/30 04:17:30;;;;;;;21.10;13.70;;;;;;;20.57;78.93;100329.50;1729741;83;20998;-68
2022/08/30 04:20:00;;;;;;;18.42;12.68;;;;;;;20.47;79.51;100332.19;1759698;81;20992;-68
2022/08/30 04:22:31;;;;;;;19.65;12.93;;;;;;;20.42;79.91;100334.09;1737318;81;21074;-69
2022/08/30 04:25:01;;;;;;;18.42;12.35;;;;;;;20.38;80.19;100339.31;1744072;81;21010;-68
2022/08/30 04:27:31;;;;;;;17.77;13.50;;;;;;;20.36;80.70;100329.00;1740981;81;21473;-68
2022/08/30 04:30:01;;;;;;;18.12;13.78;;;;;;;20.33;80.83;100333.70;1732007;81;21051;-68
2022/08/30 04:32:34;;;;;;;17.62;13.18;;;;;;;20.30;81.24;100333.39;1748461;81;21067;-66
2022/08/30 04:35:06;;;;;;;20.90;13.98;;;;;;;20.29;81.38;100336.72;1719290;81;21094;-68
2022/08/30 04:37:37;;;;;;;16.77;12.30;;;;;;;20.34;81.47;100342.89;1765114;80;21110;-68
2022/08/30 04:40:08;;;;;;;19.55;12.98;;;;;;;20.39;81.36;100335.45;1769133;80;21421;-68
2022/08/30 04:42:39;;;;;;;18.25;12.50;;;;;;;20.44;81.22;100338.29;1781033;80;21051;-67
2022/08/30 04:45:13;;;;;;;17.30;12.68;;;;;;;20.50;80.90;100331.66;1781851;80;21410;-69
2022/08/30 04:47:44;;;;;;;15.25;11.83;;;;;;;20.55;80.64;100337.83;1751180;80;21474;-68
2022/08/30 04:50:16;;;;;;;16.82;11.15;;;;;;;20.58;80.38;100338.69;1792184;80;21074;-68
2022/08/30 04:52:46;;;;;;;16.15;10.78;;;;;;;20.61;80.17;100338.70;1738366;81;21020;-67
2022/08/30 04:55:16;;;;;;;16.77;10.98;;;;;;;20.69;79.95;100339.61;1714291;81;21046;-67
2022/08/30 04:57:48;;;;;;;12.37;9.85;;;;;;;20.73;79.62;100341.59;1728386;83;21042;-68
2022/08/30 05:00:19;;;;;;;13.28;10.13;;;;;;;20.81;79.23;100336.95;1754202;81;21034;-68
2022/08/30 05:02:49;;;;;;;14.93;10.10;;;;;;;20.87;78.84;100331.71;1757831;81;20998;-68
2022/08/30 05:05:38;;;;;;;13.62;10.08;;;;;;;20.96;78.39;100343.75;1741574;81;21051;-68
2022/08/30 05:08:12;;;;;;;13.68;10.65;;;;;;;21.02;77.91;100336.55;1730305;81;21074;-69
2022/08/30 05:10:45;;;;;;;12.70;9.60;;;;;;;21.05;77.26;100342.14;1720718;83;20995;-68
2022/08/30 05:13:15;;;;;;;12.47;9.43;;;;;;;21.07;77.16;100337.14;1762460;80;21036;-70
2022/08/30 05:15:46;;;;;;;13.62;9.28;;;;;;;21.11;76.73;100338.28;1746700;81;21631;-68
2022/08/30 05:18:16;;;;;;;17.60;9.30;;;;;;;21.15;76.46;100338.03;1745947;81;21058;-68
2022/08/30 05:20:46;;;;;;;11.30;8.53;;;;;;;21.20;76.26;100339.45;1740877;81;21091;-68
2022/08/30 05:23:16;;;;;;;11.88;7.72;;;;;;;21.26;75.91;100337.02;1715186;82;21063;-68
2022/08/30 05:25:46;;;;;;;9.53;7.97;;;;;;;21.30;75.52;100330.34;1693234;82;21009;-68
2022/08/30 05:28:16;;;;;;;9.20;7.72;;;;;;;21.33;74.90;100339.00;1738512;81;21055;-68
2022/08/30 05:30:47;;;;;;;9.35;7.40;;;;;;;21.36;74.56;100341.80;1727047;81;21038;-68
2022/08/30 05:33:16;;;;;;;9.08;7.15;;;;;;;21.38;74.15;100339.58;1735110;83;21060;-68
2022/08/30 05:35:48;;;;;;;9.10;6.62;;;;;;;21.41;73.87;100340.44;1746436;80;21039;-69
2022/08/30 05:38:18;;;;;;;9.70;7.60;;;;;;;21.44;73.74;100339.34;1787875;80;21148;-68
2022/08/30 05:40:48;;;;;;;10.10;6.97;;;;;;;21.49;73.35;100340.80;1796001;80;21105;-69
2022/08/30 05:43:20;;;;;;;8.95;7.10;;;;;;;21.52;73.08;100332.44;1754829;81;21455;-68
2022/08/30 05:46:02;;;;;;;10.60;6.87;;;;;;;21.58;72.96;100335.53;1757806;80;21008;-67
2022/08/30 05:48:33;;;;;;;10.35;7.20;;;;;;;21.64;72.85;100334.44;1752532;81;21050;-68
2022/08/30 05:51:12;;;;;;;10.70;6.70;;;;;;;21.70;72.40;100334.75;1738177;81;21028;-68
2022/08/30 05:53:43;;;;;;;15.70;10.08;;;;;;;21.76;72.29;100338.39;1749464;81;21026;-68
2022/08/30 05:56:16;;;;;;;13.18;9.53;;;;;;;21.84;72.07;100334.52;1741023;81;21493;-69
2022/08/30 05:58:47;;;;;;;8.73;7.25;;;;;;;21.95;71.68;100334.00;1799676;80;20987;-69
2022/08/30 06:01:31;;;;;;;9.13;6.62;;;;;;;22.00;70.87;100334.56;1800549;80;21458;-68
2022/08/30 06:04:03;;;;;;;8.45;6.00;;;;;;;21.97;70.42;100329.53;1743240;81;21046;-68
2022/08/30 06:06:35;;;;;;;10.40;6.58;;;;;;;21.95;70.34;100326.18;1740841;81;21028;-68
2022/08/30 06:09:07;;;;;;;14.00;6.70;;;;;;;21.92;70.21;100332.31;1725090;81;21068;-68
2022/08/30 06:11:39;;;;;;;10.00;6.78;;;;;;;21.93;70.28;100328.41;1729248;82;21458;-69
2022/08/30 06:14:10;;;;;;;10.48;6.67;;;;;;;21.94;70.06;100325.90;1768126;81;21018;-68
2022/08/30 06:16:40;;;;;;;7.70;5.90;;;;;;;21.95;69.99;100330.37;1749853;81;21457;-69
2022/08/30 06:19:09;;;;;;;9.10;6.20;;;;;;;21.97;69.86;100335.12;1769695;80;21039;-68
2022/08/30 06:21:39;;;;;;;9.15;5.78;;;;;;;22.02;69.66;100335.13;1724107;81;21027;-68
2022/08/30 06:24:10;;;;;;;7.15;6.00;;;;;;;22.05;69.26;100339.63;1700285;84;21035;-68
2022/08/30 06:26:43;;;;;;;8.68;6.05;;;;;;;22.07;69.01;100336.56;1757341;81;21019;-69
2022/08/30 06:29:17;;;;;;;8.13;6.33;;;;;;;22.08;68.84;100338.24;1723591;83;21000;-68
2022/08/30 06:31:47;;;;;;;10.85;6.42;;;;;;;22.10;68.98;100334.63;1700066;84;21479;-70
2022/08/30 06:34:17;;;;;;;11.05;6.12;;;;;;;22.15;68.69;100340.25;1700101;84;21038;-69
2022/08/30 06:36:47;;;;;;;7.35;5.50;;;;;;;22.19;68.60;100339.98;1733182;81;21510;-70
2022/08/30 06:39:17;;;;;;;6.05;5.03;;;;;;;22.25;68.20;100347.25;1714823;83;21007;-69
2022/08/30 06:41:47;;;;;;;8.63;5.33;;;;;;;22.27;67.68;100338.03;1721184;83;21055;-70
2022/08/30 06:44:20;;;;;;;12.73;5.90;;;;;;;22.30;67.36;100340.28;1706909;83;21091;-70
2022/08/30 06:46:50;;;;;;;8.93;5.90;;;;;;;22.34;67.21;100340.00;1724838;83;20991;-70
2022/08/30 06:49:20;;;;;;;8.45;5.42;;;;;;;22.40;66.96;100340.29;1737415;81;21019;-69
2022/08/30 06:51:50;;;;;;;10.05;5.47;;;;;;;22.47;66.79;100338.62;1757900;81;21063;-71
2022/08/30 06:54:19;;;;;;;7.87;5.30;;;;;;;22.55;66.25;100338.63;1735821;81;21013;-70
2022/08/30 06:56:50;;;;;;;9.15;5.17;;;;;;;22.62;65.30;100343.38;1758828;81;21525;-70
2022/08/30 06:59:21;;;;;;;10.45;5.20;;;;;;;22.65;64.43;100340.02;1737758;81;21126;-70
2022/08/30 07:01:54;;;;;;;7.28;5.05;;;;;;;22.70;64.02;100341.42;1725391;83;20987;-73
2022/08/30 07:04:24;;;;;;;10.88;6.10;;;;;;;22.89;63.74;100338.41;1677351;84;21028;-69
2022/08/30 07:06:55;;;;;;;9.68;4.70;;;;;;;23.19;62.99;100338.91;1755954;81;21022;-68
2022/08/30 07:09:27;;;;;;;6.03;4.47;;;;;;;23.56;60.98;100341.95;1713641;81;20978;-67
2022/08/30 07:12:02;;;;;;;8.68;4.80;;;;;;;23.99;59.65;100334.75;1757407;81;21272;-68
2022/08/30 07:14:32;;;;;;;5.47;3.92;;;;;;;24.51;57.98;100345.39;1731206;81;20978;-67
2022/08/30 07:18:49;;;;;;;6.33;5.22;;;;;;;24.83;55.38;100339.28;1757030;81;21061;-69
2022/08/30 07:19:35;;;;;;;7.37;4.40;;;;;;;24.88;54.03;100349.04;1721853;83;21486;-71
2022/08/30 07:22:05;;;;;;;5.58;4.10;;;;;;;24.87;54.17;100347.93;1724178;81;21066;-68
2022/08/30 07:24:36;;;;;;;5.95;4.03;;;;;;;24.89;54.21;100343.70;1677044;84;21506;-69
2022/08/30 07:27:08;;;;;;;9.98;3.75;;;;;;;25.02;53.09;100354.00;1756008;81;21014;-70
2022/08/30 07:29:41;;;;;;;5.17;3.55;;;;;;;25.20;51.34;100356.89;1756239;81;21035;-67
2022/08/30 07:32:10;;;;;;;5.60;3.95;;;;;;;25.37;50.63;100355.06;1724578;83;21098;-68
2022/08/30 07:34:40;;;;;;;5.80;3.85;;;;;;;25.58;49.98;100350.89;1722146;83;21482;-69
2022/08/30 07:37:10;;;;;;;6.62;3.55;;;;;;;25.82;49.62;100354.28;1723168;83;21498;-69
2022/08/30 07:39:43;;;;;;;5.15;4.55;;;;;;;26.11;48.53;100352.23;1722805;83;21074;-69
2022/08/30 07:42:15;;;;;;;6.45;3.80;;;;;;;26.37;47.35;100355.54;1727215;83;21472;-69
2022/08/30 07:44:50;;;;;;;7.35;3.55;;;;;;;26.54;46.76;100353.59;1721416;83;21086;-69
2022/08/30 07:47:23;;;;;;;4.67;3.15;;;;;;;26.76;46.41;100344.55;1757606;81;21006;-69
2022/08/30 07:49:53;;;;;;;8.13;3.83;;;;;;;27.09;45.99;100339.21;1712021;82;21027;-68
2022/08/30 07:52:26;;;;;;;9.70;4.75;;;;;;;27.34;43.98;100339.91;1719501;83;21074;-68
2022/08/30 07:55:00;;;;;;;6.17;3.65;;;;;;;27.42;44.04;100337.20;1723693;83;20999;-68
2022/08/30 07:57:33;;;;;;;5.60;3.47;;;;;;;27.64;43.71;100341.31;1698575;83;21443;-70
2022/08/30 08:00:05;;;;;;;4.08;3.20;;;;;;;27.93;42.37;100343.79;1628474;87;21094;-69
2022/08/30 08:02:39;;;;;;;6.33;3.70;;;;;;;28.13;41.84;100343.38;1752106;81;21256;-67
2022/08/30 08:05:13;;;;;;;10.05;6.03;;;;;;;28.33;41.03;100344.34;1721799;82;21070;-66
2022/08/30 08:07:46;;;;;;;6.05;3.70;;;;;;;28.46;40.84;100344.61;1724527;83;21090;-67
2022/08/30 08:10:16;;;;;;;4.97;3.12;;;;;;;28.66;40.70;100339.92;1759907;81;21035;-67
2022/08/30 08:12:47;;;;;;;5.12;3.40;;;;;;;28.89;39.84;100338.80;1725422;83;21074;-68
2022/08/30 08:15:24;;;;;;;11.75;3.62;;;;;;;28.97;38.70;100337.19;1756322;81;21076;-69
2022/08/30 08:17:53;;;;;;;5.83;3.15;;;;;;;29.06;38.24;100340.89;1752828;81;21026;-69
2022/08/30 08:20:25;;;;;;;11.85;3.52;;;;;;;29.20;38.33;100343.05;1760697;80;21078;-66
2022/08/30 08:22:56;;;;;;;7.28;3.25;;;;;;;29.38;37.55;100341.17;1721352;81;21070;-66
2022/08/30 08:25:34;;;;;;;3.90;3.20;;;;;;;29.48;37.30;100335.27;1710462;83;21448;-66
2022/08/30 08:28:04;;;;;;;6.58;4.20;;;;;;;29.61;36.70;100339.14;1714577;83;21467;-65
2022/08/30 08:30:36;;;;;;;7.15;3.52;;;;;;;29.66;36.26;100327.70;1672934;84;21128;-65
2022/08/30 08:33:08;;;;;;;4.60;3.12;;;;;;;29.78;36.21;100341.20;1718316;83;21034;-66
2022/08/30 08:35:41;;;;;;;;;;;;;;;29.92;35.77;100339.11;1733120;83;21554;-65
2022/08/30 08:38:11;;;;;;;7.15;3.10;;;;;;;29.97;35.54;100342.61;1706919;83;20186;-65
2022/08/30 08:41:20;;;;;;;7.47;3.67;;;;;;;29.95;35.16;100335.04;1707726;83;21036;-66
2022/08/30 08:43:51;;;;;;;4.28;3.00;;;;;;;29.92;34.84;100337.69;1722425;83;21034;-65
2022/08/30 08:46:35;;;;;;;3.70;2.60;;;;;;;29.77;34.22;100329.64;1710806;83;21012;-66
2022/08/30 08:49:06;;;;;;;3.85;2.87;;;;;;;29.65;33.78;100335.92;1726909;80;21046;-67
2022/08/30 08:54:36;;;;;;;8.13;3.30;;;;;;;29.57;33.56;100343.20;1755703;81;21070;-65
2022/08/30 08:57:17;;;;;;;6.60;3.17;;;;;;;29.62;33.42;100337.41;1770456;80;21057;-66
2022/08/30 08:59:53;;;;;;;3.92;2.62;;;;;;;29.55;33.33;100346.09;1642247;86;21097;-66
2022/08/30 09:02:29;;;;;;;5.62;2.80;;;;;;;29.41;33.45;100336.30;1651012;86;21046;-66
2022/08/30 09:05:03;;;;;;;5.17;3.20;;;;;;;29.25;34.00;100330.20;1659757;86;21034;-65
2022/08/30 09:07:37;;;;;;;5.05;2.90;;;;;;;29.11;34.56;100338.51;1617931;86;21531;-66
2022/08/30 09:10:08;;;;;;;7.00;3.08;;;;;;;28.97;34.58;100342.25;1643013;86;21109;-64
2022/08/30 09:12:39;;;;;;;5.20;2.85;;;;;;;28.70;34.75;100336.14;1658244;85;21180;-65
2022/08/30 09:15:21;;;;;;;4.45;2.98;;;;;;;28.44;35.44;100333.66;1651483;86;21086;-66
2022/08/30 09:17:56;;;;;;;7.25;3.05;;;;;;;28.35;35.86;100339.80;1650388;86;21077;-65
2022/08/30 09:20:34;;;;;;;4.87;2.87;;;;;;;28.20;34.90;100338.71;1644151;86;21705;-66
2022/08/30 09:23:25;;;;;;;6.58;3.20;;;;;;;27.98;36.00;100344.55;1659251;86;21050;-66
2022/08/30 09:26:08;;;;;;;4.87;2.80;;;;;;;27.75;36.66;100343.59;1653435;86;21116;-65
2022/08/30 09:28:49;;;;;;;4.25;2.90;;;;;;;27.56;37.09;100341.44;1631161;87;21066;-67
2022/08/30 09:31:27;;;;;;;6.62;3.08;;;;;;;27.50;36.82;100332.83;1672395;81;21045;-65
2022/08/30 09:34:04;;;;;;;7.28;3.20;;;;;;;27.44;36.82;100335.48;1733370;80;21172;-64
2022/08/30 09:36:50;;;;;;;8.63;3.40;;;;;;;27.46;36.89;100334.03;1775680;80;21121;-66
2022/08/30 09:39:36;;;;;;;5.08;2.77;;;;;;;27.42;37.19;100337.20;1749380;80;21013;-66
2022/08/30 09:42:22;;;;;;;6.85;2.87;;;;;;;27.39;37.31;100336.42;1676561;85;21028;-66
2022/08/30 09:45:09;;;;;;;;;;;;;;;27.37;36.96;100340.12;1679007;85;21007;-65
2022/08/30 09:47:30;;;;;;;5.58;2.90;;;;;;;27.37;37.13;100334.49;1672072;85;20229;-64
2022/08/30 09:50:12;;;;;;;11.18;5.97;;;;;;;27.36;37.35;100331.41;1672296;85;21063;-64
2022/08/30 09:53:08;;;;;;;7.65;3.10;;;;;;;27.34;37.95;100332.30;1669192;85;21064;-65
2022/08/30 09:55:55;;;;;;;7.08;3.52;;;;;;;27.39;38.12;100323.76;1677315;84;21059;-66
2022/08/30 09:58:32;;;;;;;5.45;2.70;;;;;;;27.33;38.34;100333.45;1705915;83;21110;-66
2022/08/30 10:01:26;;;;;;;6.65;3.05;;;;;;;27.28;38.68;100333.52;1767511;80;21034;-65
2022/08/30 10:04:17;;;;;;;6.72;3.05;;;;;;;27.22;39.09;100325.48;1727655;80;21502;-66
2022/08/30 10:06:57;;;;;;;4.35;2.85;;;;;;;27.10;39.61;100325.41;1769243;80;21034;-67
2022/08/30 10:09:36;;;;;;;7.12;2.90;;;;;;;27.14;39.57;100325.63;1763155;80;21135;-63
2022/08/30 10:12:27;;;;;;;4.35;2.90;;;;;;;27.17;39.36;100344.70;1778660;80;21165;-62
2022/08/30 10:15:29;;;;;;;4.92;3.12;;;;;;;27.20;39.02;100334.80;1777860;79;21035;-66
2022/08/30 10:18:39;;;;;;;5.45;3.08;;;;;;;27.14;38.96;100335.47;1776276;80;21055;-66
2022/08/30 10:21:14;;;;;;;5.75;2.67;;;;;;;26.98;39.30;100325.64;1778541;80;21046;-65
2022/08/30 10:24:00;;;;;;;6.20;3.00;;;;;;;26.88;39.61;100329.44;1779046;80;20967;-65
2022/08/30 10:26:43;;;;;;;5.55;3.25;;;;;;;26.87;39.35;100342.40;1777577;80;21035;-64
2022/08/30 10:29:33;;;;;;;5.17;2.62;;;;;;;26.84;39.22;100332.03;1776382;80;21019;-64
2022/08/30 10:32:20;;;;;;;3.45;2.40;;;;;;;26.86;38.87;100330.31;1778099;80;21042;-64
2022/08/30 10:35:10;;;;;;;4.45;2.40;;;;;;;26.88;38.96;100341.26;1766142;80;21038;-65
2022/08/30 10:37:44;;;;;;;3.65;2.47;;;;;;;26.84;38.85;100325.58;1779953;80;21061;-65
2022/08/30 10:43:41;;;;;;;5.12;2.60;;;;;;;26.69;39.30;100322.45;1771608;80;21061;-65
2022/08/30 10:46:16;;;;;;;5.42;2.58;;;;;;;26.73;39.31;100324.91;1767430;80;21043;-65
2022/08/30 10:48:47;;;;;;;;;;;;;;;26.67;39.32;100322.50;1766593;80;21457;-64
2022/08/30 10:51:32;;;;;;;3.22;2.50;;;;;;;26.68;39.58;100319.38;1777542;80;20153;-64
2022/08/30 10:54:17;;;;;;;5.33;2.67;;;;;;;26.76;39.44;100317.27;1766436;80;20990;-65
2022/08/30 10:56:50;;;;;;;4.78;2.67;;;;;;;26.81;39.57;100324.22;1779909;79;21450;-65
2022/08/30 10:59:20;;;;;;;5.10;2.75;;;;;;;26.87;39.62;100318.50;1808712;79;21047;-63
2022/08/30 11:02:22;;;;;;;7.12;2.60;;;;;;;26.91;39.55;100310.55;1788991;79;20980;-64
2022/08/30 11:04:58;;;;;;;3.80;2.72;;;;;;;26.95;39.41;100303.73;1789906;79;21007;-65
2022/08/30 11:07:50;;;;;;;6.83;3.40;;;;;;;26.92;39.84;100307.16;1809164;79;21055;-65
2022/08/30 11:10:42;;;;;;;4.47;2.70;;;;;;;26.92;39.87;100304.35;1805933;79;21447;-65
2022/08/30 11:13:27;;;;;;;5.72;2.72;;;;;;;26.95;39.68;100304.56;1807498;79;20995;-64
2022/08/30 11:16:14;;;;;;;8.35;2.92;;;;;;;26.93;39.28;100301.80;1807825;79;20976;-64
2022/08/30 11:18:55;;;;;;;6.05;2.60;;;;;;;26.89;39.11;100300.18;1771345;79;21023;-66
2022/08/30 11:21:37;;;;;;;2.80;2.40;;;;;;;26.83;39.23;100304.23;1808975;79;21459;-64
2022/08/30 11:24:21;;;;;;;4.70;2.72;;;;;;;26.77;39.40;100299.27;1792714;79;21484;-64
2022/08/30 11:26:55;;;;;;;3.80;2.75;;;;;;;26.79;39.03;100297.55;1814462;79;21058;-63
2022/08/30 11:29:42;;;;;;;3.65;2.47;;;;;;;26.76;38.53;100300.41;1808029;79;21043;-63
2022/08/30 11:32:24;;;;;;;6.97;2.80;;;;;;;26.75;38.28;100306.34;1792529;79;21451;-64
2022/08/30 11:34:55;;;;;;;6.50;2.35;;;;;;;26.75;38.61;100294.52;1808909;79;20984;-65
2022/08/30 11:37:42;;;;;;;4.67;2.70;;;;;;;26.76;38.91;100295.35;1809998;79;21043;-66
2022/08/30 11:40:25;;;;;;;4.55;2.40;;;;;;;26.72;39.17;100295.14;1793923;79;20972;-66
2022/08/30 11:42:57;;;;;;;4.58;2.37;;;;;;;26.76;38.90;100293.95;1807967;79;20988;-64
2022/08/30 11:45:34;;;;;;;3.80;2.40;;;;;;;26.75;38.68;100298.73;1782176;79;21011;-64
2022/08/30 11:48:06;;;;;;;5.28;2.58;;;;;;;26.75;38.67;100283.84;1808681;79;21447;-66
2022/08/30 11:50:51;;;;;;;5.17;2.95;;;;;;;26.72;39.19;100276.86;1742352;81;21135;-64
2022/08/30 11:53:44;;;;;;;4.17;2.60;;;;;;;26.73;39.20;100281.34;1765204;81;21094;-63
2022/08/30 11:56:27;;;;;;;3.65;2.30;;;;;;;26.75;39.24;100287.49;1760331;81;21052;-65
2022/08/30 11:59:20;;;;;;;2.58;2.05;;;;;;;26.80;38.58;100278.97;1768073;81;21314;-66